Time;durP1;ratioP1;P1;durP2;ratioP2;P2;SDS_P1;SDS_P2;PMS_P1;PMS_P2;Temp;Humidity;BMP_temperature;BMP_pressure;BME280_temperature;BME280_humidity;BME280_pressure;Samples;Min_cycle;Max_cycle;Signal;HPM_P1;HPM_P2
2022/12/12 00:00:21;;;;;;;30.70;12.48;;;;;;;-2.21;100.00;100957.16;6186189;23;20005;-91
2022/12/12 00:02:46;;;;;;;31.50;13.05;;;;;;;-2.30;100.00;100970.31;6160988;23;20063;-90
2022/12/12 00:05:14;;;;;;;31.87;13.33;;;;;;;-2.46;100.00;100958.03;6188664;22;20012;-91
2022/12/12 00:07:40;;;;;;;33.05;13.43;;;;;;;-2.50;100.00;100969.88;6182146;23;20088;-91
2022/12/12 00:10:06;;;;;;;31.45;12.80;;;;;;;-2.60;100.00;100975.31;6181759;23;19997;-91
2022/12/12 00:12:35;;;;;;;28.83;12.43;;;;;;;-2.72;100.00;100981.88;6182507;23;20005;-91
2022/12/12 00:15:01;;;;;;;28.08;12.25;;;;;;;-2.84;100.00;100972.72;6182382;23;20025;-91
2022/12/12 00:17:27;;;;;;;30.80;13.00;;;;;;;-2.96;100.00;100962.56;6160287;22;20443;-90
2022/12/12 00:19:53;;;;;;;29.00;13.10;;;;;;;-2.97;100.00;100973.22;6184013;23;20013;-91
2022/12/12 00:22:18;;;;;;;31.53;12.13;;;;;;;-3.11;100.00;100978.13;6157991;23;20012;-91
2022/12/12 00:24:55;;;;;;;29.27;11.95;;;;;;;-3.21;100.00;100965.19;6183073;23;20011;-92
2022/12/12 00:27:21;;;;;;;29.53;12.57;;;;;;;-3.39;100.00;100949.63;6184609;23;20015;-91
2022/12/12 00:30:12;;;;;;;28.95;13.07;;;;;;;-3.39;100.00;100948.78;6182765;23;20088;-91
2022/12/12 00:32:59;;;;;;;30.17;12.88;;;;;;;-3.56;100.00;100938.28;6184271;23;20008;-92
2022/12/12 00:35:24;;;;;;;31.33;13.20;;;;;;;-3.46;100.00;100953.88;6158073;23;20345;-90
2022/12/12 00:37:59;;;;;;;39.10;13.45;;;;;;;-3.53;100.00;100951.06;6183901;23;20000;-91
2022/12/12 00:40:24;;;;;;;31.07;12.83;;;;;;;-3.57;100.00;100957.63;6183915;23;20012;-91
2022/12/12 00:42:49;;;;;;;33.80;13.17;;;;;;;-3.51;100.00;100974.50;6183685;23;20240;-91
2022/12/12 00:45:15;;;;;;;33.47;13.30;;;;;;;-3.56;100.00;100966.31;6184023;23;20520;-91
2022/12/12 00:47:40;;;;;;;34.73;15.60;;;;;;;-3.64;100.00;100951.38;6182868;23;20001;-91
2022/12/12 00:50:06;;;;;;;35.37;14.43;;;;;;;-3.53;100.00;100971.19;6183800;23;20087;-91
2022/12/12 00:52:36;;;;;;;37.00;14.35;;;;;;;-3.60;100.00;100962.38;6184000;23;20025;-90
2022/12/12 00:55:02;;;;;;;35.13;14.10;;;;;;;-3.55;100.00;100981.84;6183407;23;20020;-91
2022/12/12 00:57:28;;;;;;;40.40;15.93;;;;;;;-3.55;100.00;100979.22;6184345;23;20009;-91
2022/12/12 00:59:53;;;;;;;36.03;14.57;;;;;;;-3.56;100.00;100971.56;6156533;23;20088;-90
2022/12/12 01:02:18;;;;;;;35.03;13.87;;;;;;;-3.60;100.00;100975.47;6183324;23;20426;-91
2022/12/12 01:04:44;;;;;;;38.60;15.50;;;;;;;-3.55;100.00;100981.84;6183396;23;20001;-91
2022/12/12 01:07:09;;;;;;;40.95;15.07;;;;;;;-3.62;100.00;100974.81;6183331;23;20425;-90
2022/12/12 01:09:34;;;;;;;37.27;14.93;;;;;;;-3.61;100.00;100985.09;6183954;23;20008;-91
2022/12/12 01:12:00;;;;;;;35.87;14.23;;;;;;;-3.58;100.00;100994.47;6183272;23;20417;-90
2022/12/12 01:14:25;;;;;;;36.53;14.20;;;;;;;-3.65;100.00;100989.84;6183569;23;20008;-91
2022/12/12 01:16:51;;;;;;;35.00;14.18;;;;;;;-3.64;100.00;100995.91;6183895;23;20005;-91
2022/12/12 01:19:16;;;;;;;35.63;14.50;;;;;;;-3.81;100.00;100974.91;6184151;22;20009;-90
2022/12/12 01:21:41;;;;;;;39.97;15.70;;;;;;;-3.65;100.00;100999.50;6197901;23;20056;-90
2022/12/12 01:24:19;;;;;;;36.40;16.27;;;;;;;-3.66;100.00;101006.56;6193630;23;20395;-91
2022/12/12 01:29:22;;;;;;;34.97;15.30;;;;;;;-3.82;100.00;100988.16;6185520;22;20020;-91
2022/12/12 01:31:48;;;;;;;38.97;15.00;;;;;;;-3.75;100.00;101007.53;6183382;23;20012;-91
2022/12/12 01:34:13;;;;;;;37.65;14.65;;;;;;;-3.86;100.00;101000.78;6183851;23;20001;-91
2022/12/12 01:36:39;;;;;;;37.10;14.73;;;;;;;-3.84;100.00;101005.84;6182557;23;20039;-91
2022/12/12 01:44:38;;;;;;;37.10;14.05;;;;;;;-3.94;100.00;101018.25;6186975;22;20021;-91
2022/12/12 01:47:04;;;;;;;37.50;14.32;;;;;;;-3.99;100.00;101013.47;6156491;23;20012;-92
2022/12/12 01:49:32;;;;;;;32.63;13.23;;;;;;;-4.06;100.00;101017.69;6183296;23;20396;-91
2022/12/12 02:02:09;;;;;;;34.20;14.48;;;;;;;-4.29;100.00;101023.47;6202673;22;20261;-91
2022/12/12 02:04:34;;;;;;;34.10;14.00;;;;;;;-4.34;100.00;101016.06;6183373;23;20021;-92
2022/12/12 02:07:00;;;;;;;35.58;14.25;;;;;;;-4.31;100.00;101025.41;6182561;23;20005;-91
2022/12/12 02:09:26;;;;;;;33.97;13.48;;;;;;;-4.37;100.00;101024.22;6182684;23;20009;-92
2022/12/12 02:11:54;;;;;;;31.73;12.93;;;;;;;-4.39;100.00;101031.41;6182282;23;20357;-91
2022/12/12 02:14:24;;;;;;;35.90;14.25;;;;;;;-4.44;100.00;101024.03;6183430;23;20068;-89
2022/12/12 02:17:08;;;;;;;33.47;13.55;;;;;;;-4.44;100.00;101026.66;6182175;23;20012;-89
2022/12/12 02:19:58;;;;;;;31.38;13.38;;;;;;;-4.47;100.00;101031.34;6156001;23;20380;-89
2022/12/12 02:22:47;;;;;;;34.78;13.25;;;;;;;-4.50;100.00;101032.47;6184705;23;20075;-89
2022/12/12 02:25:28;;;;;;;35.17;13.47;;;;;;;-4.52;100.00;101034.44;6186075;23;20032;-89
2022/12/12 02:42:20;;;;;;;33.97;12.73;;;;;;;-4.74;100.00;101036.56;6203931;23;20044;-94
2022/12/12 02:47:58;;;;;;;34.42;13.68;;;;;;;-4.85;100.00;101031.56;6189160;23;20037;-92
2022/12/12 02:50:57;;;;;;;32.60;12.70;;;;;;;-5.11;100.00;101008.81;6184268;23;20434;-92
2022/12/12 02:53:33;;;;;;;;;;;;;;;;;;;;;
2022/12/12 02:56:29;;;;;;;31.33;12.77;;;;;;;-5.39;100.00;100998.44;6004301;23;20078;-93
2022/12/12 04:18:44;;;;;;;35.42;13.35;;;;;;;-6.27;100.00;101041.47;6188480;23;20016;-93
2022/12/12 04:24:58;;;;;;;29.80;11.07;;;;;;;-6.45;100.00;101025.72;6184187;23;20242;-96
2022/12/12 04:34:22;;;;;;;34.85;12.05;;;;;;;-6.49;100.00;101047.03;6166674;23;20104;-93
2022/12/12 04:37:30;;;;;;;28.33;12.18;;;;;;;-6.69;100.00;101026.19;6154139;23;20016;-94
2022/12/12 04:50:42;;;;;;;31.35;11.50;;;;;;;-6.83;100.00;101039.66;6176211;22;20020;-94
2022/12/12 04:53:36;;;;;;;29.40;11.73;;;;;;;-6.88;100.00;101038.28;6183133;23;20045;-93
2022/12/12 04:56:18;;;;;;;;;;;;;;;;;;;;;
2022/12/12 05:09:22;;;;;;;;;;;;;;;;;;;;;
2022/12/12 05:12:07;;;;;;;33.60;12.80;;;;;;;-6.51;100.00;101060.22;6182135;23;20658;-92
2022/12/12 05:17:59;;;;;;;33.67;12.37;;;;;;;-6.57;100.00;101056.34;6182369;23;20024;-93
2022/12/12 05:20:24;;;;;;;31.80;12.50;;;;;;;-6.66;100.00;101041.56;6182788;23;20240;-91
2022/12/12 05:22:50;;;;;;;39.00;14.32;;;;;;;-6.60;100.00;101046.22;6182838;23;20012;-90
2022/12/12 05:25:15;;;;;;;36.40;13.20;;;;;;;-6.61;100.00;101047.19;6183391;23;20333;-93
2022/12/12 05:33:38;;;;;;;40.40;12.77;;;;;;;-6.61;100.00;101062.00;6183578;22;20028;-93
2022/12/12 05:36:03;;;;;;;36.13;12.85;;;;;;;-6.66;100.00;101051.97;6183875;23;20068;-91
2022/12/12 05:38:28;;;;;;;34.47;13.03;;;;;;;-6.63;100.00;101067.34;6182881;23;20039;-91
2022/12/12 05:40:54;;;;;;;31.42;12.00;;;;;;;-6.79;100.00;101056.66;6183163;23;20005;-89
2022/12/12 05:43:19;;;;;;;36.17;13.53;;;;;;;-6.84;100.00;101054.44;6156376;23;20337;-87
2022/12/12 05:45:46;;;;;;;30.57;12.47;;;;;;;-6.84;100.00;101070.09;6182527;23;20012;-96
2022/12/12 05:48:15;;;;;;;35.50;12.73;;;;;;;-6.89;100.00;101072.31;6183664;23;20437;-94
2022/12/12 05:50:50;;;;;;;36.03;13.30;;;;;;;-6.94;100.00;101077.94;6158148;23;19993;-93
2022/12/12 05:53:15;;;;;;;36.20;11.87;;;;;;;-6.95;100.00;101078.06;6182108;23;20692;-91
2022/12/12 05:55:43;;;;;;;34.22;12.00;;;;;;;-6.99;100.00;101064.47;6184783;23;20045;-93
2022/12/12 05:58:11;;;;;;;29.43;11.77;;;;;;;-7.15;100.00;101051.97;6183261;23;20000;-93
2022/12/12 06:00:39;;;;;;;36.72;13.07;;;;;;;-7.21;100.00;101037.72;6182471;23;20039;-93
2022/12/12 06:03:07;;;;;;;35.63;13.60;;;;;;;-7.35;100.00;101028.50;6182710;23;20031;-90
2022/12/12 06:05:32;;;;;;;28.60;11.93;;;;;;;-7.25;100.00;101056.38;6156960;23;20080;-91
2022/12/12 06:07:58;;;;;;;29.93;12.03;;;;;;;-7.26;100.00;101058.13;6181242;23;20346;-92
2022/12/12 06:10:23;;;;;;;34.10;12.63;;;;;;;-7.33;100.00;101047.44;6181985;23;20021;-92
2022/12/12 06:12:49;;;;;;;34.72;11.93;;;;;;;-7.45;100.00;101049.31;6182100;23;20084;-91
2022/12/12 06:15:17;;;;;;;34.73;11.53;;;;;;;-7.24;100.00;101071.84;6156725;23;20009;-90
2022/12/12 06:17:42;;;;;;;35.58;12.50;;;;;;;-7.44;100.00;101047.56;6182050;23;20009;-90
2022/12/12 06:20:08;;;;;;;31.93;12.10;;;;;;;-7.46;100.00;101050.28;6182157;23;20020;-92
2022/12/12 06:22:34;;;;;;;29.97;11.20;;;;;;;-7.27;100.00;101085.13;6182552;23;20013;-90
2022/12/12 06:25:00;;;;;;;37.50;12.60;;;;;;;-7.39;100.00;101071.41;6181277;23;20068;-88
2022/12/12 06:27:25;;;;;;;31.33;12.13;;;;;;;-7.42;100.00;101074.28;6182570;23;20013;-92
2022/12/12 06:30:04;;;;;;;38.97;13.77;;;;;;;-7.55;100.00;101055.47;6181653;23;20005;-89
2022/12/12 06:32:32;;;;;;;39.40;13.13;;;;;;;-7.40;100.00;101084.56;6182944;23;20013;-90
2022/12/12 06:35:13;;;;;;;33.00;12.93;;;;;;;-7.49;100.00;101060.16;6157007;23;20331;-94
2022/12/12 06:37:59;;;;;;;36.80;12.70;;;;;;;-7.34;100.00;101095.25;6181847;23;20005;-94
2022/12/12 06:40:30;;;;;;;33.22;11.82;;;;;;;-7.42;100.00;101081.25;6156105;23;20013;-95
2022/12/12 06:48:54;;;;;;;35.42;12.60;;;;;;;-7.40;100.00;101082.81;6186830;22;20024;-91
2022/12/12 06:52:11;;;;;;;45.77;13.83;;;;;;;-7.45;100.00;101087.56;6184215;23;20133;-91
2022/12/12 07:01:56;;;;;;;37.50;12.77;;;;;;;-7.29;100.00;101120.91;6144387;23;20071;-92
2022/12/12 07:04:22;;;;;;;30.90;11.52;;;;;;;-7.36;100.00;101112.81;6061328;23;20011;-91
2022/12/12 07:06:48;;;;;;;35.47;12.65;;;;;;;-7.49;100.00;101094.84;6061630;23;20102;-91
2022/12/12 07:09:13;;;;;;;28.70;11.50;;;;;;;-7.61;100.00;101088.06;6061791;23;20003;-92
2022/12/12 07:12:06;;;;;;;34.33;11.83;;;;;;;-7.49;100.00;101114.81;6072135;23;20029;-91
2022/12/12 07:23:50;;;;;;;27.63;10.63;;;;;;;-7.96;100.00;101095.34;6180917;23;20100;-90
2022/12/12 07:26:28;;;;;;;36.58;12.13;;;;;;;-7.79;100.00;101134.72;6180759;23;20032;-94
2022/12/12 07:28:56;;;;;;;33.42;10.95;;;;;;;-7.99;100.00;101105.16;6183234;23;20009;-93
2022/12/12 07:35:47;;;;;;;;;;;;;;;;;;;;;
2022/12/12 07:38:12;;;;;;;35.05;11.48;;;;;;;-7.76;100.00;101126.66;6081485;23;20386;-92
2022/12/12 07:40:40;;;;;;;37.97;11.83;;;;;;;-7.71;100.00;101134.88;6182215;23;20021;-92
2022/12/12 07:51:38;;;;;;;42.88;13.48;;;;;;;-7.93;100.00;101109.84;6193062;23;20455;-90
2022/12/12 07:54:18;;;;;;;37.30;12.80;;;;;;;-7.79;100.00;101139.91;6191743;23;20016;-92
2022/12/12 07:57:10;;;;;;;37.42;13.75;;;;;;;-7.69;100.00;101148.59;6188906;23;20005;-91
2022/12/12 07:59:35;;;;;;;43.70;13.82;;;;;;;-7.69;100.00;101143.38;6171174;23;20100;-93
2022/12/12 08:11:19;;;;;;;39.60;14.13;;;;;;;-7.46;100.00;101172.66;6183262;22;20392;-93
2022/12/12 08:14:34;;;;;;;40.10;13.52;;;;;;;-7.50;100.00;101171.28;6194146;23;20040;-94
2022/12/12 08:17:28;;;;;;;40.83;13.27;;;;;;;-7.52;100.00;101168.00;6189650;23;20052;-92
2022/12/12 08:19:53;;;;;;;44.77;14.07;;;;;;;-7.59;100.00;101166.03;6101419;23;20013;-93
2022/12/12 08:22:28;;;;;;;37.80;13.97;;;;;;;-7.58;100.00;101160.69;6187783;23;20239;-95
2022/12/12 08:25:49;;;;;;;44.58;15.68;;;;;;;-7.55;100.00;101147.41;6189933;23;20010;-93
2022/12/12 08:31:40;;;;;;;46.00;13.83;;;;;;;-7.17;100.00;101178.94;6044575;23;20038;-96
2022/12/12 08:34:09;;;;;;;39.58;13.25;;;;;;;-7.24;100.00;101154.38;6151745;22;20012;-96
2022/12/12 08:36:35;;;;;;;43.33;14.60;;;;;;;-6.99;100.00;101186.94;6194965;23;20032;-92
2022/12/12 08:39:08;;;;;;;42.78;14.02;;;;;;;-6.96;100.00;101186.69;6183627;23;20005;-93
2022/12/12 08:41:38;;;;;;;41.92;13.48;;;;;;;-6.93;100.00;101185.59;6184077;23;20433;-94
2022/12/12 08:44:04;;;;;;;41.63;14.52;;;;;;;-6.93;100.00;101193.41;6184634;23;20060;-88
2022/12/12 08:46:31;;;;;;;47.30;15.00;;;;;;;-6.94;100.00;101182.16;6183904;23;20025;-87
2022/12/12 08:48:56;;;;;;;46.03;15.48;;;;;;;-6.87;100.00;101177.22;6184529;23;20013;-95
2022/12/12 08:51:45;;;;;;;44.47;13.77;;;;;;;-6.87;100.00;101172.84;6188999;23;20032;-92
2022/12/12 08:54:11;;;;;;;45.55;14.65;;;;;;;-6.85;100.00;101170.91;6191399;23;20008;-92
2022/12/12 08:57:00;;;;;;;43.65;14.00;;;;;;;-6.85;100.00;101176.13;6189758;23;20497;-90
2022/12/12 08:59:25;;;;;;;46.75;13.40;;;;;;;-6.79;100.00;101174.75;6191870;22;19993;-94
2022/12/12 09:01:51;;;;;;;49.90;14.57;;;;;;;-6.67;100.00;101185.91;6208679;23;20001;-95
2022/12/12 09:12:48;;;;;;;42.15;12.80;;;;;;;-6.34;100.00;101172.59;6190672;22;20021;-95
2022/12/12 09:15:14;;;;;;;41.67;13.00;;;;;;;-6.27;100.00;101171.91;6183668;23;20020;-94
2022/12/12 09:17:39;;;;;;;49.43;14.57;;;;;;;-6.05;100.00;101190.84;6184798;23;20020;-92
2022/12/12 09:20:17;;;;;;;51.50;12.80;;;;;;;-5.88;100.00;101202.31;6185014;23;20060;-91
2022/12/12 09:22:42;;;;;;;50.45;13.10;;;;;;;-5.93;100.00;101201.91;6184156;23;20055;-94
2022/12/12 09:25:09;;;;;;;46.67;12.87;;;;;;;-5.94;100.00;101185.44;6187988;23;20004;-96
2022/12/12 09:27:36;;;;;;;48.83;12.18;;;;;;;-5.79;100.00;101204.09;6187199;23;20011;-93
2022/12/12 09:30:12;;;;;;;;;;;;;;;;;;;;;
2022/12/12 09:32:38;;;;;;;51.40;13.30;;;;;;;-5.72;100.00;101203.50;6180540;23;20096;-90
2022/12/12 09:35:05;;;;;;;43.57;11.97;;;;;;;-5.64;100.00;101204.47;6183435;23;20422;-92
2022/12/12 09:37:30;;;;;;;50.33;12.35;;;;;;;-5.51;100.00;101204.16;6182802;23;20032;-91
2022/12/12 09:39:58;;;;;;;48.73;13.87;;;;;;;-5.63;100.00;101180.00;6184165;23;20005;-93
2022/12/12 09:42:37;;;;;;;51.45;14.00;;;;;;;-5.56;100.00;101174.22;6183776;23;20012;-91
2022/12/12 09:45:32;;;;;;;;;;;;;;;;;;;;;
2022/12/12 09:48:01;;;;;;;52.80;13.75;;;;;;;-5.13;100.00;101201.53;6162073;23;20093;-91
2022/12/12 09:56:16;;;;;;;47.27;12.40;;;;;;;-5.01;100.00;101204.75;6215761;22;20495;-92
2022/12/12 10:02:31;;;;;;;42.88;13.18;;;;;;;-5.12;100.00;101168.38;6207123;22;20028;-94
2022/12/12 10:05:16;;;;;;;42.10;11.45;;;;;;;-4.90;100.00;101185.44;6186804;23;20009;-93
2022/12/12 10:07:52;;;;;;;46.53;12.75;;;;;;;-4.87;100.00;101183.38;6157110;23;20008;-94
2022/12/12 10:10:26;;;;;;;45.17;12.93;;;;;;;-4.85;100.00;101188.44;6157347;23;20430;-93
2022/12/12 10:19:18;;;;;;;43.30;11.98;;;;;;;-4.56;100.00;101195.25;6183725;22;20025;-92
2022/12/12 10:21:46;;;;;;;47.95;13.30;;;;;;;-4.56;100.00;101175.19;6175434;23;20014;-92
2022/12/12 10:24:14;;;;;;;45.78;12.25;;;;;;;-4.44;100.00;101175.78;6195939;23;20013;-94
2022/12/12 10:26:41;;;;;;;41.58;11.15;;;;;;;-4.35;100.00;101178.44;6192673;23;20029;-96
2022/12/12 10:29:12;;;;;;;49.13;12.85;;;;;;;-4.38;100.00;101176.97;6195142;23;20019;-95
2022/12/12 10:32:08;;;;;;;44.47;11.70;;;;;;;-4.26;100.00;101180.19;6193407;23;20386;-94
2022/12/12 10:34:37;;;;;;;48.42;13.52;;;;;;;-4.12;100.00;101192.72;6192414;23;20107;-93
2022/12/12 10:37:14;;;;;;;45.13;12.13;;;;;;;-4.08;100.00;101174.09;6170938;23;20016;-93
2022/12/12 10:39:55;;;;;;;41.97;11.65;;;;;;;-3.90;100.00;101181.91;6193221;23;20012;-94
2022/12/12 10:42:54;;;;;;;36.50;10.88;;;;;;;-3.90;100.00;101176.66;6201218;22;20009;-90
2022/12/12 10:45:53;;;;;;;39.78;12.60;;;;;;;-3.84;100.00;101176.91;6199456;23;20061;-91
2022/12/12 10:49:13;;;;;;;41.47;12.60;;;;;;;-3.74;100.00;101175.94;6207823;23;20003;-95
2022/12/12 10:51:40;;;;;;;40.67;11.17;;;;;;;-3.78;100.00;101151.03;6198866;23;20275;-95
2022/12/12 10:54:34;;;;;;;35.15;11.48;;;;;;;-3.71;100.00;101159.94;6191251;23;20001;-95
2022/12/12 10:57:23;;;;;;;38.08;12.35;;;;;;;-3.63;100.00;101149.47;6162049;23;20017;-93
2022/12/12 10:59:55;;;;;;;36.13;11.57;;;;;;;-3.57;100.00;101146.25;6153517;23;20005;-93
2022/12/12 11:02:40;;;;;;;41.42;11.85;;;;;;;-3.26;100.00;101178.97;6152469;23;20009;-93
2022/12/12 11:05:15;;;;;;;36.40;11.73;;;;;;;-3.23;100.00;101169.00;6152323;23;20005;-93
2022/12/12 11:07:45;;;;;;;35.43;10.90;;;;;;;-3.09;100.00;101174.59;6154615;23;20010;-94
2022/12/12 11:10:22;;;;;;;31.38;11.00;;;;;;;-3.09;100.00;101164.13;6153307;23;20002;-90
2022/12/12 11:13:00;;;;;;;34.00;10.20;;;;;;;-3.08;100.00;101171.00;6154937;23;20017;-94
2022/12/12 11:15:54;;;;;;;32.20;10.77;;;;;;;-3.01;100.00;101164.16;6155771;23;20080;-94
2022/12/12 11:18:21;;;;;;;30.90;9.90;;;;;;;-2.95;100.00;101163.53;6114978;23;20015;-94
2022/12/12 11:21:00;;;;;;;29.80;10.20;;;;;;;-2.95;100.00;101155.66;6154849;23;20005;-95
2022/12/12 11:23:27;;;;;;;29.70;10.50;;;;;;;-2.87;100.00;101157.47;6155969;23;20089;-96
2022/12/12 11:25:58;;;;;;;34.70;11.23;;;;;;;-2.86;100.00;101153.88;6155961;23;20017;-96
2022/12/12 11:28:29;;;;;;;30.55;10.73;;;;;;;-2.82;100.00;101157.00;6156718;23;20005;-95
2022/12/12 11:30:55;;;;;;;32.30;10.75;;;;;;;-2.85;100.00;101146.81;6155660;23;20001;-95
2022/12/12 11:33:30;;;;;;;25.70;8.82;;;;;;;-2.75;100.00;101158.81;6155677;23;20021;-95
2022/12/12 11:35:56;;;;;;;30.85;10.10;;;;;;;-2.66;100.00;101157.00;6155855;23;20052;-95
2022/12/12 11:38:29;;;;;;;29.20;9.95;;;;;;;-2.55;100.00;101162.91;6155537;23;20005;-96
2022/12/12 11:41:01;;;;;;;31.67;10.00;;;;;;;-2.52;100.00;101152.94;6155943;23;20010;-94
2022/12/12 11:43:33;;;;;;;30.43;9.27;;;;;;;-2.43;100.00;101148.50;6157601;23;20237;-94
2022/12/12 11:46:01;;;;;;;28.27;9.43;;;;;;;-2.36;100.00;101148.66;6162161;23;20014;-94
2022/12/12 11:48:47;;;;;;;26.95;8.82;;;;;;;-2.37;100.00;101147.84;6169252;23;20012;-94
2022/12/12 11:51:37;;;;;;;27.60;9.90;;;;;;;-2.33;100.00;101143.91;6161817;23;20021;-92
2022/12/12 11:54:10;;;;;;;27.40;9.00;;;;;;;-2.26;100.00;101151.94;6156417;23;20010;-95
2022/12/12 11:56:54;;;;;;;26.52;8.95;;;;;;;-2.20;100.00;101148.66;6157512;23;20028;-94
2022/12/12 11:59:25;;;;;;;31.65;9.85;;;;;;;-2.11;100.00;101149.47;6158655;23;20018;-92
2022/12/12 12:01:56;;;;;;;26.57;9.97;;;;;;;-2.04;100.00;101147.00;6157743;23;20020;-92
2022/12/12 12:04:50;;;;;;;26.00;9.43;;;;;;;-2.01;100.00;101146.69;6160408;23;20248;-91
2022/12/12 12:07:31;;;;;;;24.40;8.77;;;;;;;-1.97;100.00;101142.75;6172867;23;20670;-91
2022/12/12 12:10:27;;;;;;;25.38;9.40;;;;;;;-1.93;100.00;101144.03;6171405;23;20014;-92
2022/12/12 12:13:20;;;;;;;25.80;8.73;;;;;;;-1.84;100.00;101140.41;6171346;23;20006;-92
2022/12/12 12:15:51;;;;;;;24.73;8.40;;;;;;;-1.84;100.00;101132.53;6167027;23;20009;-91
2022/12/12 12:18:26;;;;;;;24.20;7.68;;;;;;;-1.78;100.00;101138.09;6163869;23;20020;-91
2022/12/12 12:21:08;;;;;;;24.85;7.50;;;;;;;-1.75;100.00;101141.19;6156111;23;20076;-91
2022/12/12 12:23:58;;;;;;;23.13;7.93;;;;;;;-1.74;100.00;101147.28;6156226;23;20013;-93
2022/12/12 12:26:46;;;;;;;20.17;7.93;;;;;;;-1.66;100.00;101149.06;6156680;23;20729;-93
2022/12/12 12:29:28;;;;;;;22.83;6.55;;;;;;;-1.63;100.00;101138.19;6155967;23;20009;-92
2022/12/12 12:32:36;;;;;;;16.88;6.78;;;;;;;-1.60;100.00;101137.88;6155846;23;20036;-92
2022/12/12 12:38:14;;;;;;;16.67;6.57;;;;;;;-1.63;100.00;101138.19;6151601;22;20024;-92
2022/12/12 12:41:17;;;;;;;19.70;6.38;;;;;;;-1.59;100.00;101135.09;6149457;23;20386;-94
2022/12/12 12:43:56;;;;;;;19.92;6.78;;;;;;;-1.59;100.00;101140.34;6176200;23;20006;-94
2022/12/12 12:50:12;;;;;;;15.33;5.70;;;;;;;-1.65;100.00;101121.81;6165986;23;20241;-94
2022/12/12 12:52:45;;;;;;;18.65;6.20;;;;;;;-1.69;100.00;101111.63;6178682;23;20024;-94
2022/12/12 12:55:17;;;;;;;15.45;5.88;;;;;;;-1.64;100.00;101124.25;6179971;23;20355;-94
2022/12/12 12:57:47;;;;;;;18.23;5.75;;;;;;;-1.62;100.00;101126.69;6181125;23;20025;-91
2022/12/12 13:00:16;;;;;;;15.63;5.80;;;;;;;-1.66;100.00;101114.91;6181606;23;20021;-95
2022/12/12 13:03:06;;;;;;;19.33;6.03;;;;;;;-1.66;100.00;101117.53;6182461;23;20004;-94
2022/12/12 13:05:39;;;;;;;18.15;6.32;;;;;;;-1.62;100.00;101132.78;6178564;23;20013;-94
2022/12/12 13:11:22;;;;;;;14.70;4.78;;;;;;;-1.63;100.00;101127.69;6183364;23;19997;-95
2022/12/12 13:13:50;;;;;;;13.52;5.13;;;;;;;-1.68;100.00;101120.31;6183202;23;20002;-95
2022/12/12 13:16:26;;;;;;;13.73;4.53;;;;;;;-1.61;100.00;101125.72;6183857;23;20001;-96
2022/12/12 13:19:05;;;;;;;10.25;4.78;;;;;;;-1.62;100.00;101118.81;6184013;23;20005;-96
2022/12/12 13:21:42;;;;;;;11.50;4.43;;;;;;;-1.59;100.00;101124.56;6182804;23;19994;-95
2022/12/12 13:24:24;;;;;;;11.17;4.23;;;;;;;-1.59;100.00;101129.84;6183473;23;19997;-94
2022/12/12 13:26:56;;;;;;;14.77;4.60;;;;;;;-1.55;100.00;101127.69;6165766;22;20280;-94
2022/12/12 13:30:03;;;;;;;19.40;4.82;;;;;;;-1.59;100.00;101116.69;6168138;23;20009;-94
2022/12/12 13:39:50;;;;;;;10.13;3.80;;;;;;;-1.70;100.00;101120.50;6057270;23;20030;-96
2022/12/12 13:49:08;;;;;;;8.97;3.47;;;;;;;-1.77;100.00;101116.91;6164234;22;20271;-96
2022/12/12 13:57:25;;;;;;;11.02;5.53;;;;;;;-1.71;100.00;101121.50;6167306;22;20009;-95
2022/12/12 14:00:51;;;;;;;;;;;;;;;;;;;;;
2022/12/12 14:03:27;;;;;;;16.67;5.82;;;;;;;-1.76;100.00;101084.38;6052119;23;20013;-96
2022/12/12 14:06:52;;;;;;;19.88;6.68;;;;;;;-1.78;100.00;101080.28;6173257;23;20334;-96
2022/12/12 14:09:20;;;;;;;12.37;5.63;;;;;;;-1.62;100.00;101103.06;6172229;23;20010;-95
2022/12/12 14:11:47;;;;;;;13.70;6.53;;;;;;;-1.63;100.00;101107.50;6176459;23;20267;-95
2022/12/12 14:14:20;;;;;;;13.85;5.93;;;;;;;-1.72;100.00;101101.47;6176080;23;20052;-96
2022/12/12 14:16:54;;;;;;;15.32;5.45;;;;;;;-1.69;100.00;101118.69;6182954;23;19997;-91
2022/12/12 14:19:33;;;;;;;14.13;5.82;;;;;;;-1.71;100.00;101116.22;6178850;23;20013;-96
2022/12/12 14:21:59;;;;;;;12.65;5.25;;;;;;;-1.72;100.00;101104.09;6180686;23;19993;-94
2022/12/12 14:24:33;;;;;;;14.70;5.33;;;;;;;-1.71;100.00;101108.34;6182442;23;19997;-96
2022/12/12 14:27:04;;;;;;;11.83;5.43;;;;;;;-1.76;100.00;101110.66;6174222;23;20241;-94
2022/12/12 14:29:43;;;;;;;14.00;5.75;;;;;;;-1.79;100.00;101124.13;6170081;23;20025;-94
2022/12/12 14:32:12;;;;;;;14.45;5.10;;;;;;;-1.88;100.00;101128.59;6171151;23;20426;-95
2022/12/12 14:35:05;;;;;;;12.77;5.97;;;;;;;-1.91;100.00;101138.63;6181616;23;20005;-95
2022/12/12 14:38:02;;;;;;;14.70;5.60;;;;;;;-1.93;100.00;101140.59;6181886;23;20009;-94
2022/12/12 14:40:33;;;;;;;13.77;5.30;;;;;;;-2.04;100.00;101134.72;6181870;23;19990;-96
2022/12/12 14:43:08;;;;;;;14.10;5.10;;;;;;;-2.09;100.00;101138.78;6178093;23;20037;-96
2022/12/12 14:51:55;;;;;;;15.82;6.50;;;;;;;-2.17;100.00;101142.25;6178812;23;20350;-95
2022/12/12 14:54:26;;;;;;;17.23;6.80;;;;;;;-2.32;100.00;101119.28;6179625;23;19989;-95
2022/12/12 14:57:06;;;;;;;16.90;5.80;;;;;;;-2.30;100.00;101146.22;6125989;23;20062;-96
2022/12/12 15:09:28;;;;;;;13.63;6.27;;;;;;;-2.77;100.00;101141.59;6161296;22;20040;-93
2022/12/12 15:12:11;;;;;;;17.77;6.63;;;;;;;-2.92;100.00;101136.16;6182668;23;19997;-96
2022/12/12 15:14:50;;;;;;;15.32;6.95;;;;;;;-3.23;100.00;101111.31;6182281;23;20054;-96
2022/12/12 15:20:21;;;;;;;18.35;7.07;;;;;;;-3.47;100.00;101111.25;6183947;23;20001;-96
2022/12/12 15:23:05;;;;;;;16.95;6.88;;;;;;;-3.51;100.00;101129.91;6177852;22;20013;-96
2022/12/12 15:26:22;;;;;;;15.67;6.87;;;;;;;-3.48;100.00;101154.16;6176209;22;20000;-96
2022/12/12 16:03:00;;;;;;;20.45;7.45;;;;;;;-5.01;100.00;101126.34;6168785;23;20041;-95
2022/12/12 16:12:57;;;;;;;15.65;6.78;;;;;;;-5.08;100.00;101182.81;6056371;23;20022;-96
2022/12/12 16:15:58;;;;;;;16.83;7.65;;;;;;;-5.21;100.00;101172.69;6066247;23;20002;-95
2022/12/12 16:18:44;;;;;;;17.13;6.90;;;;;;;-5.15;100.00;101187.78;6136363;23;20335;-96
2022/12/12 16:21:09;;;;;;;17.40;7.10;;;;;;;-5.14;100.00;101188.59;6156049;23;20020;-96
2022/12/12 16:23:40;;;;;;;17.00;7.20;;;;;;;-5.20;100.00;101172.53;6148369;23;20040;-95
2022/12/12 16:26:09;;;;;;;19.30;7.00;;;;;;;-5.28;100.00;101163.78;6151451;23;20068;-91
2022/12/12 16:28:34;;;;;;;17.52;7.20;;;;;;;-5.42;100.00;101141.59;6154715;23;20013;-92
2022/12/12 16:31:03;;;;;;;17.07;7.70;;;;;;;-5.45;100.00;101134.03;6154272;23;20085;-94
2022/12/12 16:33:33;;;;;;;18.90;7.82;;;;;;;-5.28;100.00;101155.94;6153612;23;20008;-95
2022/12/12 16:36:06;;;;;;;21.05;8.80;;;;;;;-5.30;100.00;101156.09;6168673;23;20028;-96
2022/12/12 16:38:32;;;;;;;27.70;10.75;;;;;;;-5.40;100.00;101156.13;6169287;23;20334;-96
2022/12/12 16:41:13;;;;;;;29.00;10.77;;;;;;;-5.36;100.00;101159.28;6156061;23;20001;-96
2022/12/12 16:43:38;;;;;;;27.08;10.20;;;;;;;-5.40;100.00;101156.13;6156037;23;20005;-96
2022/12/12 16:46:27;;;;;;;31.63;10.87;;;;;;;-5.63;100.00;101124.34;6162877;23;20014;-96
2022/12/12 16:48:52;;;;;;;26.73;10.40;;;;;;;-5.70;100.00;101121.50;6139754;23;20060;-94
2022/12/12 16:51:29;;;;;;;25.77;10.30;;;;;;;-5.58;100.00;101139.56;6158753;23;20014;-96
2022/12/12 16:53:55;;;;;;;30.00;10.85;;;;;;;-5.70;100.00;101128.47;6156873;23;20020;-96
2022/12/12 16:56:42;;;;;;;28.67;10.57;;;;;;;-5.60;100.00;101151.94;6154757;23;20001;-95
2022/12/12 16:59:10;;;;;;;23.23;9.57;;;;;;;-5.76;100.00;101136.91;6155629;23;20032;-94
2022/12/12 17:01:50;;;;;;;22.37;10.17;;;;;;;-5.80;100.00;101145.00;6160728;23;20264;-96
2022/12/12 17:04:20;;;;;;;25.92;10.35;;;;;;;-5.70;100.00;101152.81;6157094;23;20010;-96
2022/12/12 17:07:01;;;;;;;28.55;11.20;;;;;;;-5.93;100.00;101132.28;6153324;23;20084;-96